Terminal Aerodrome Forecast
Issued by NWS

Home | Current Version | Previous Version | Text Only | Print | Product List | Glossary On
Versions: 1 2 3 4 5 6 7 8 9 10 11 12 13 14 15
000
FTUS43 KSGF 181700
TAFJLN
TAF
KJLN 181734Z 1818/1918 24006KT P6SM SCT250
     FM190000 17005KT P6SM SKC
     FM190800 19010KT P6SM FEW070 BKN250 WS010/26040KT
     FM191400 23013KT P6SM BKN250=

USA.gov is the U.S. government's official web portal to all federal, state and local government web resources and services.